sensor_id;sensor_type;location;lat;lon;timestamp;P1;durP1;ratioP1;P2;durP2;ratioP2
20739;SDS011;10530;49.968;19.844;2023-08-07T00:02:55;5.63;;;1.52;;
20739;SDS011;10530;49.968;19.844;2023-08-07T00:07:58;4.50;;;1.37;;
20739;SDS011;10530;49.968;19.844;2023-08-07T00:13:00;4.53;;;2.00;;
20739;SDS011;10530;49.968;19.844;2023-08-07T00:18:03;4.57;;;1.80;;
20739;SDS011;10530;49.968;19.844;2023-08-07T00:23:05;3.90;;;1.50;;
20739;SDS011;10530;49.968;19.844;2023-08-07T00:28:08;8.48;;;2.00;;
20739;SDS011;10530;49.968;19.844;2023-08-07T00:33:11;5.07;;;1.93;;
20739;SDS011;10530;49.968;19.844;2023-08-07T00:38:14;4.20;;;1.70;;
20739;SDS011;10530;49.968;19.844;2023-08-07T00:43:17;4.50;;;1.80;;
20739;SDS011;10530;49.968;19.844;2023-08-07T00:48:20;4.88;;;1.80;;
20739;SDS011;10530;49.968;19.844;2023-08-07T00:53:23;4.30;;;1.70;;
20739;SDS011;10530;49.968;19.844;2023-08-07T00:58:26;4.50;;;1.90;;
20739;SDS011;10530;49.968;19.844;2023-08-07T01:03:28;4.10;;;1.70;;
20739;SDS011;10530;49.968;19.844;2023-08-07T01:08:31;4.40;;;1.90;;
20739;SDS011;10530;49.968;19.844;2023-08-07T01:13:37;3.70;;;1.58;;
20739;SDS011;10530;49.968;19.844;2023-08-07T01:19:01;3.88;;;1.38;;
20739;SDS011;10530;49.968;19.844;2023-08-07T01:24:06;3.70;;;1.40;;
20739;SDS011;10530;49.968;19.844;2023-08-07T01:29:14;4.32;;;1.60;;
20739;SDS011;10530;49.968;19.844;2023-08-07T01:34:24;5.37;;;1.50;;
20739;SDS011;10530;49.968;19.844;2023-08-07T01:39:28;4.07;;;1.55;;
20739;SDS011;10530;49.968;19.844;2023-08-07T01:44:34;3.58;;;1.30;;
20739;SDS011;10530;49.968;19.844;2023-08-07T01:49:37;5.83;;;1.40;;
20739;SDS011;10530;49.968;19.844;2023-08-07T01:54:40;4.63;;;1.42;;
20739;SDS011;10530;49.968;19.844;2023-08-07T01:59:43;3.97;;;1.33;;
20739;SDS011;10530;49.968;19.844;2023-08-07T02:04:46;6.93;;;1.50;;
20739;SDS011;10530;49.968;19.844;2023-08-07T02:09:49;4.13;;;1.42;;
20739;SDS011;10530;49.968;19.844;2023-08-07T02:14:52;5.80;;;1.60;;
20739;SDS011;10530;49.968;19.844;2023-08-07T02:19:55;4.18;;;1.45;;
20739;SDS011;10530;49.968;19.844;2023-08-07T02:24:57;3.90;;;1.70;;
20739;SDS011;10530;49.968;19.844;2023-08-07T02:30:00;3.90;;;1.40;;
20739;SDS011;10530;49.968;19.844;2023-08-07T02:35:05;3.88;;;1.50;;
20739;SDS011;10530;49.968;19.844;2023-08-07T02:40:08;4.07;;;1.20;;
20739;SDS011;10530;49.968;19.844;2023-08-07T02:45:13;5.57;;;1.48;;
20739;SDS011;10530;49.968;19.844;2023-08-07T02:50:15;4.93;;;1.47;;
20739;SDS011;10530;49.968;19.844;2023-08-07T02:55:18;3.97;;;1.48;;
20739;SDS011;10530;49.968;19.844;2023-08-07T03:00:21;4.10;;;1.55;;
20739;SDS011;10530;49.968;19.844;2023-08-07T03:05:25;5.20;;;1.40;;
20739;SDS011;10530;49.968;19.844;2023-08-07T03:10:28;7.15;;;1.45;;
20739;SDS011;10530;49.968;19.844;2023-08-07T03:15:30;3.90;;;1.53;;
20739;SDS011;10530;49.968;19.844;2023-08-07T03:20:35;4.78;;;1.63;;
20739;SDS011;10530;49.968;19.844;2023-08-07T03:25:39;5.38;;;1.50;;
20739;SDS011;10530;49.968;19.844;2023-08-07T03:30:42;4.83;;;1.67;;
20739;SDS011;10530;49.968;19.844;2023-08-07T03:35:48;3.97;;;1.63;;
20739;SDS011;10530;49.968;19.844;2023-08-07T03:40:51;5.13;;;1.63;;
20739;SDS011;10530;49.968;19.844;2023-08-07T03:45:54;4.10;;;1.60;;
20739;SDS011;10530;49.968;19.844;2023-08-07T03:51:05;5.45;;;1.58;;
20739;SDS011;10530;49.968;19.844;2023-08-07T03:56:21;4.07;;;1.70;;
20739;SDS011;10530;49.968;19.844;2023-08-07T04:01:25;5.28;;;1.83;;
20739;SDS011;10530;49.968;19.844;2023-08-07T04:06:28;4.60;;;1.57;;
20739;SDS011;10530;49.968;19.844;2023-08-07T04:11:31;5.05;;;1.80;;
20739;SDS011;10530;49.968;19.844;2023-08-07T04:16:35;7.00;;;3.10;;
20739;SDS011;10530;49.968;19.844;2023-08-07T04:21:39;9.97;;;4.00;;
20739;SDS011;10530;49.968;19.844;2023-08-07T04:26:43;9.95;;;4.22;;
20739;SDS011;10530;49.968;19.844;2023-08-07T04:31:46;8.60;;;3.20;;
20739;SDS011;10530;49.968;19.844;2023-08-07T04:36:48;7.55;;;2.20;;
20739;SDS011;10530;49.968;19.844;2023-08-07T04:41:53;3.95;;;1.40;;
20739;SDS011;10530;49.968;19.844;2023-08-07T04:46:56;3.13;;;0.90;;
20739;SDS011;10530;49.968;19.844;2023-08-07T04:51:59;3.10;;;1.23;;
20739;SDS011;10530;49.968;19.844;2023-08-07T04:57:21;3.83;;;1.30;;
20739;SDS011;10530;49.968;19.844;2023-08-07T05:02:24;3.63;;;0.90;;
20739;SDS011;10530;49.968;19.844;2023-08-07T05:07:26;2.80;;;0.82;;
20739;SDS011;10530;49.968;19.844;2023-08-07T05:12:29;2.70;;;1.10;;
20739;SDS011;10530;49.968;19.844;2023-08-07T05:17:32;3.88;;;1.00;;
20739;SDS011;10530;49.968;19.844;2023-08-07T05:22:35;2.70;;;0.67;;
20739;SDS011;10530;49.968;19.844;2023-08-07T05:27:38;3.03;;;0.70;;
20739;SDS011;10530;49.968;19.844;2023-08-07T05:32:41;2.83;;;0.70;;
20739;SDS011;10530;49.968;19.844;2023-08-07T05:37:43;4.30;;;0.60;;
20739;SDS011;10530;49.968;19.844;2023-08-07T05:42:46;2.40;;;0.70;;
20739;SDS011;10530;49.968;19.844;2023-08-07T05:47:49;3.17;;;0.70;;
20739;SDS011;10530;49.968;19.844;2023-08-07T05:52:52;3.17;;;0.70;;
20739;SDS011;10530;49.968;19.844;2023-08-07T05:57:54;2.30;;;0.57;;
20739;SDS011;10530;49.968;19.844;2023-08-07T06:02:57;2.30;;;0.60;;
20739;SDS011;10530;49.968;19.844;2023-08-07T06:08:00;2.00;;;0.40;;
20739;SDS011;10530;49.968;19.844;2023-08-07T06:13:03;2.00;;;0.50;;
20739;SDS011;10530;49.968;19.844;2023-08-07T06:18:07;3.65;;;0.65;;
20739;SDS011;10530;49.968;19.844;2023-08-07T06:23:10;2.65;;;0.75;;
20739;SDS011;10530;49.968;19.844;2023-08-07T06:28:12;2.83;;;0.80;;
20739;SDS011;10530;49.968;19.844;2023-08-07T06:33:15;3.20;;;0.80;;
20739;SDS011;10530;49.968;19.844;2023-08-07T06:38:18;3.70;;;0.80;;
20739;SDS011;10530;49.968;19.844;2023-08-07T06:43:21;3.50;;;0.70;;
20739;SDS011;10530;49.968;19.844;2023-08-07T06:48:24;4.80;;;0.90;;
20739;SDS011;10530;49.968;19.844;2023-08-07T06:53:27;3.10;;;1.00;;
20739;SDS011;10530;49.968;19.844;2023-08-07T06:58:29;3.53;;;0.90;;
20739;SDS011;10530;49.968;19.844;2023-08-07T07:03:32;4.33;;;0.80;;
20739;SDS011;10530;49.968;19.844;2023-08-07T07:08:35;3.55;;;0.82;;
20739;SDS011;10530;49.968;19.844;2023-08-07T07:13:38;2.70;;;0.63;;
20739;SDS011;10530;49.968;19.844;2023-08-07T07:18:41;2.73;;;0.63;;
20739;SDS011;10530;49.968;19.844;2023-08-07T07:23:43;2.65;;;0.65;;
20739;SDS011;10530;49.968;19.844;2023-08-07T07:28:46;2.30;;;0.70;;
20739;SDS011;10530;49.968;19.844;2023-08-07T07:33:49;2.85;;;0.70;;
20739;SDS011;10530;49.968;19.844;2023-08-07T07:38:52;4.15;;;0.90;;
20739;SDS011;10530;49.968;19.844;2023-08-07T07:43:55;2.93;;;0.90;;
20739;SDS011;10530;49.968;19.844;2023-08-07T07:48:58;3.00;;;0.70;;
20739;SDS011;10530;49.968;19.844;2023-08-07T07:54:03;2.90;;;0.90;;
20739;SDS011;10530;49.968;19.844;2023-08-07T07:59:15;2.50;;;0.70;;
20739;SDS011;10530;49.968;19.844;2023-08-07T08:04:19;2.33;;;0.60;;
20739;SDS011;10530;49.968;19.844;2023-08-07T08:09:22;2.33;;;0.50;;
20739;SDS011;10530;49.968;19.844;2023-08-07T08:14:24;3.45;;;0.68;;
20739;SDS011;10530;49.968;19.844;2023-08-07T08:19:27;5.07;;;0.60;;
20739;SDS011;10530;49.968;19.844;2023-08-07T08:24:46;4.68;;;1.10;;
20739;SDS011;10530;49.968;19.844;2023-08-07T08:29:49;3.75;;;0.70;;
20739;SDS011;10530;49.968;19.844;2023-08-07T08:34:53;2.50;;;0.70;;
20739;SDS011;10530;49.968;19.844;2023-08-07T08:39:55;2.03;;;0.60;;
20739;SDS011;10530;49.968;19.844;2023-08-07T08:44:58;2.70;;;0.70;;
20739;SDS011;10530;49.968;19.844;2023-08-07T08:50:02;2.40;;;0.70;;
20739;SDS011;10530;49.968;19.844;2023-08-07T08:55:09;4.05;;;0.75;;
20739;SDS011;10530;49.968;19.844;2023-08-07T09:00:13;2.40;;;0.80;;
20739;SDS011;10530;49.968;19.844;2023-08-07T09:05:20;2.55;;;0.70;;
20739;SDS011;10530;49.968;19.844;2023-08-07T09:10:23;2.67;;;0.80;;
20739;SDS011;10530;49.968;19.844;2023-08-07T09:15:27;2.47;;;0.75;;
20739;SDS011;10530;49.968;19.844;2023-08-07T09:20:31;2.97;;;0.88;;
20739;SDS011;10530;49.968;19.844;2023-08-07T09:25:36;4.10;;;0.90;;
20739;SDS011;10530;49.968;19.844;2023-08-07T09:30:39;4.97;;;1.35;;
20739;SDS011;10530;49.968;19.844;2023-08-07T09:35:44;5.50;;;0.90;;
20739;SDS011;10530;49.968;19.844;2023-08-07T09:40:48;2.75;;;0.90;;
20739;SDS011;10530;49.968;19.844;2023-08-07T09:45:51;2.78;;;1.00;;
20739;SDS011;10530;49.968;19.844;2023-08-07T09:50:54;4.43;;;0.97;;
20739;SDS011;10530;49.968;19.844;2023-08-07T09:56:00;2.30;;;0.70;;
20739;SDS011;10530;49.968;19.844;2023-08-07T10:01:03;2.83;;;1.00;;
20739;SDS011;10530;49.968;19.844;2023-08-07T10:06:06;3.10;;;1.00;;
20739;SDS011;10530;49.968;19.844;2023-08-07T10:11:11;2.60;;;0.90;;
20739;SDS011;10530;49.968;19.844;2023-08-07T10:16:18;3.17;;;0.90;;
20739;SDS011;10530;49.968;19.844;2023-08-07T10:21:21;3.17;;;1.00;;
20739;SDS011;10530;49.968;19.844;2023-08-07T10:26:25;2.60;;;0.83;;
20739;SDS011;10530;49.968;19.844;2023-08-07T10:31:28;3.05;;;1.17;;
20739;SDS011;10530;49.968;19.844;2023-08-07T10:36:33;3.00;;;1.52;;
20739;SDS011;10530;49.968;19.844;2023-08-07T10:41:46;3.87;;;1.07;;
20739;SDS011;10530;49.968;19.844;2023-08-07T10:46:55;2.90;;;1.13;;
20739;SDS011;10530;49.968;19.844;2023-08-07T10:52:12;2.60;;;0.90;;
20739;SDS011;10530;49.968;19.844;2023-08-07T10:57:20;3.38;;;0.90;;
20739;SDS011;10530;49.968;19.844;2023-08-07T11:02:24;3.50;;;1.08;;
20739;SDS011;10530;49.968;19.844;2023-08-07T11:07:30;2.93;;;1.00;;
20739;SDS011;10530;49.968;19.844;2023-08-07T11:12:33;2.55;;;0.85;;
20739;SDS011;10530;49.968;19.844;2023-08-07T11:17:38;2.90;;;1.00;;
20739;SDS011;10530;49.968;19.844;2023-08-07T11:22:43;3.05;;;1.52;;
20739;SDS011;10530;49.968;19.844;2023-08-07T11:27:45;5.45;;;1.08;;
20739;SDS011;10530;49.968;19.844;2023-08-07T11:32:48;2.93;;;0.90;;
20739;SDS011;10530;49.968;19.844;2023-08-07T11:37:51;2.40;;;0.80;;
20739;SDS011;10530;49.968;19.844;2023-08-07T11:42:56;2.40;;;0.77;;
20739;SDS011;10530;49.968;19.844;2023-08-07T11:47:59;3.03;;;1.10;;
20739;SDS011;10530;49.968;19.844;2023-08-07T11:53:04;3.60;;;1.40;;
20739;SDS011;10530;49.968;19.844;2023-08-07T11:58:07;3.57;;;1.00;;
20739;SDS011;10530;49.968;19.844;2023-08-07T12:03:25;4.70;;;1.55;;
20739;SDS011;10530;49.968;19.844;2023-08-07T12:08:33;2.70;;;0.93;;
20739;SDS011;10530;49.968;19.844;2023-08-07T12:13:38;4.32;;;0.95;;
20739;SDS011;10530;49.968;19.844;2023-08-07T12:18:50;3.03;;;1.10;;
20739;SDS011;10530;49.968;19.844;2023-08-07T12:23:57;3.10;;;1.20;;
20739;SDS011;10530;49.968;19.844;2023-08-07T12:29:01;3.10;;;1.10;;
20739;SDS011;10530;49.968;19.844;2023-08-07T12:34:03;3.23;;;1.03;;
20739;SDS011;10530;49.968;19.844;2023-08-07T12:39:10;3.70;;;1.50;;
20739;SDS011;10530;49.968;19.844;2023-08-07T12:44:13;4.65;;;1.70;;
20739;SDS011;10530;49.968;19.844;2023-08-07T12:49:16;4.33;;;1.60;;
20739;SDS011;10530;49.968;19.844;2023-08-07T12:54:21;4.88;;;1.67;;
20739;SDS011;10530;49.968;19.844;2023-08-07T12:59:24;4.90;;;1.57;;
20739;SDS011;10530;49.968;19.844;2023-08-07T13:04:26;4.75;;;1.75;;
20739;SDS011;10530;49.968;19.844;2023-08-07T13:09:29;5.32;;;1.60;;
20739;SDS011;10530;49.968;19.844;2023-08-07T13:14:32;6.03;;;1.80;;
20739;SDS011;10530;49.968;19.844;2023-08-07T13:19:35;5.70;;;2.33;;
20739;SDS011;10530;49.968;19.844;2023-08-07T13:24:38;4.83;;;1.77;;
20739;SDS011;10530;49.968;19.844;2023-08-07T13:29:40;3.72;;;1.52;;
20739;SDS011;10530;49.968;19.844;2023-08-07T13:34:43;3.42;;;1.13;;
20739;SDS011;10530;49.968;19.844;2023-08-07T13:39:47;5.50;;;1.93;;
20739;SDS011;10530;49.968;19.844;2023-08-07T13:44:51;4.70;;;1.67;;
20739;SDS011;10530;49.968;19.844;2023-08-07T13:49:54;4.47;;;1.80;;
20739;SDS011;10530;49.968;19.844;2023-08-07T13:54:57;5.20;;;1.80;;
20739;SDS011;10530;49.968;19.844;2023-08-07T13:59:59;4.60;;;1.92;;
20739;SDS011;10530;49.968;19.844;2023-08-07T14:05:02;5.80;;;2.37;;
20739;SDS011;10530;49.968;19.844;2023-08-07T14:10:06;4.82;;;2.10;;
20739;SDS011;10530;49.968;19.844;2023-08-07T14:15:09;5.03;;;1.70;;
20739;SDS011;10530;49.968;19.844;2023-08-07T14:20:13;4.00;;;1.60;;
20739;SDS011;10530;49.968;19.844;2023-08-07T14:25:16;5.70;;;1.63;;
20739;SDS011;10530;49.968;19.844;2023-08-07T14:30:19;4.23;;;1.50;;
20739;SDS011;10530;49.968;19.844;2023-08-07T14:35:22;3.75;;;1.60;;
20739;SDS011;10530;49.968;19.844;2023-08-07T14:40:25;3.63;;;1.43;;
20739;SDS011;10530;49.968;19.844;2023-08-07T14:45:28;5.10;;;1.63;;
20739;SDS011;10530;49.968;19.844;2023-08-07T14:50:31;3.70;;;1.50;;
20739;SDS011;10530;49.968;19.844;2023-08-07T14:55:34;4.57;;;1.67;;
20739;SDS011;10530;49.968;19.844;2023-08-07T15:00:36;5.18;;;1.60;;
20739;SDS011;10530;49.968;19.844;2023-08-07T15:05:39;5.13;;;1.67;;
20739;SDS011;10530;49.968;19.844;2023-08-07T15:10:42;4.38;;;1.40;;
20739;SDS011;10530;49.968;19.844;2023-08-07T15:15:45;3.60;;;1.50;;
20739;SDS011;10530;49.968;19.844;2023-08-07T15:20:48;4.93;;;1.53;;
20739;SDS011;10530;49.968;19.844;2023-08-07T15:25:51;4.60;;;1.58;;
20739;SDS011;10530;49.968;19.844;2023-08-07T15:30:54;4.27;;;1.77;;
20739;SDS011;10530;49.968;19.844;2023-08-07T15:35:57;3.42;;;1.30;;
20739;SDS011;10530;49.968;19.844;2023-08-07T15:41:01;5.55;;;1.65;;
20739;SDS011;10530;49.968;19.844;2023-08-07T15:46:04;5.30;;;1.80;;
20739;SDS011;10530;49.968;19.844;2023-08-07T15:51:07;6.47;;;1.88;;
20739;SDS011;10530;49.968;19.844;2023-08-07T15:56:11;4.13;;;1.70;;
20739;SDS011;10530;49.968;19.844;2023-08-07T16:01:13;4.38;;;1.65;;
20739;SDS011;10530;49.968;19.844;2023-08-07T16:06:16;5.38;;;1.98;;
20739;SDS011;10530;49.968;19.844;2023-08-07T16:11:20;6.23;;;1.83;;
20739;SDS011;10530;49.968;19.844;2023-08-07T16:16:23;4.60;;;2.00;;
20739;SDS011;10530;49.968;19.844;2023-08-07T16:21:26;7.13;;;1.97;;
20739;SDS011;10530;49.968;19.844;2023-08-07T16:26:29;4.68;;;1.80;;
20739;SDS011;10530;49.968;19.844;2023-08-07T16:31:31;5.75;;;1.80;;
20739;SDS011;10530;49.968;19.844;2023-08-07T16:36:35;4.43;;;1.50;;
20739;SDS011;10530;49.968;19.844;2023-08-07T16:41:38;4.15;;;1.65;;
20739;SDS011;10530;49.968;19.844;2023-08-07T16:46:47;5.03;;;1.53;;
20739;SDS011;10530;49.968;19.844;2023-08-07T16:51:50;4.65;;;1.70;;
20739;SDS011;10530;49.968;19.844;2023-08-07T16:56:56;3.35;;;1.33;;
20739;SDS011;10530;49.968;19.844;2023-08-07T17:01:59;3.87;;;1.70;;
20739;SDS011;10530;49.968;19.844;2023-08-07T17:07:02;4.50;;;1.60;;
20739;SDS011;10530;49.968;19.844;2023-08-07T17:12:05;5.43;;;1.80;;
20739;SDS011;10530;49.968;19.844;2023-08-07T17:17:08;4.00;;;1.50;;
20739;SDS011;10530;49.968;19.844;2023-08-07T17:22:13;4.40;;;1.60;;
20739;SDS011;10530;49.968;19.844;2023-08-07T17:27:15;4.70;;;1.63;;
20739;SDS011;10530;49.968;19.844;2023-08-07T17:32:18;4.72;;;1.52;;
20739;SDS011;10530;49.968;19.844;2023-08-07T17:37:21;4.40;;;1.70;;
20739;SDS011;10530;49.968;19.844;2023-08-07T17:42:24;6.20;;;2.00;;
20739;SDS011;10530;49.968;19.844;2023-08-07T17:47:27;3.97;;;1.45;;
20739;SDS011;10530;49.968;19.844;2023-08-07T17:52:30;6.07;;;1.80;;
20739;SDS011;10530;49.968;19.844;2023-08-07T17:57:33;5.78;;;1.73;;
20739;SDS011;10530;49.968;19.844;2023-08-07T18:02:36;5.13;;;2.00;;
20739;SDS011;10530;49.968;19.844;2023-08-07T18:07:39;6.45;;;1.77;;
20739;SDS011;10530;49.968;19.844;2023-08-07T18:12:42;5.53;;;1.85;;
20739;SDS011;10530;49.968;19.844;2023-08-07T18:17:45;5.80;;;2.10;;
20739;SDS011;10530;49.968;19.844;2023-08-07T18:22:47;6.30;;;2.13;;
20739;SDS011;10530;49.968;19.844;2023-08-07T18:27:50;4.47;;;1.90;;
20739;SDS011;10530;49.968;19.844;2023-08-07T18:32:53;4.13;;;1.60;;
20739;SDS011;10530;49.968;19.844;2023-08-07T18:37:56;6.28;;;2.25;;
20739;SDS011;10530;49.968;19.844;2023-08-07T18:42:59;6.23;;;1.83;;
20739;SDS011;10530;49.968;19.844;2023-08-07T18:48:01;5.88;;;2.25;;
20739;SDS011;10530;49.968;19.844;2023-08-07T18:53:04;5.07;;;2.10;;
20739;SDS011;10530;49.968;19.844;2023-08-07T18:58:07;5.75;;;1.88;;
20739;SDS011;10530;49.968;19.844;2023-08-07T19:03:10;6.57;;;2.42;;
20739;SDS011;10530;49.968;19.844;2023-08-07T19:08:13;6.33;;;2.20;;
20739;SDS011;10530;49.968;19.844;2023-08-07T19:13:15;5.55;;;2.22;;
20739;SDS011;10530;49.968;19.844;2023-08-07T19:18:18;5.57;;;2.10;;
20739;SDS011;10530;49.968;19.844;2023-08-07T19:23:21;6.63;;;1.95;;
20739;SDS011;10530;49.968;19.844;2023-08-07T19:28:24;6.45;;;2.10;;
20739;SDS011;10530;49.968;19.844;2023-08-07T19:33:26;5.33;;;2.00;;
20739;SDS011;10530;49.968;19.844;2023-08-07T19:38:29;5.32;;;2.10;;
20739;SDS011;10530;49.968;19.844;2023-08-07T19:43:32;5.20;;;1.90;;
20739;SDS011;10530;49.968;19.844;2023-08-07T19:48:35;4.72;;;1.73;;
20739;SDS011;10530;49.968;19.844;2023-08-07T19:53:39;5.00;;;1.83;;
20739;SDS011;10530;49.968;19.844;2023-08-07T19:58:57;4.63;;;1.80;;
20739;SDS011;10530;49.968;19.844;2023-08-07T20:03:59;5.25;;;1.50;;
20739;SDS011;10530;49.968;19.844;2023-08-07T20:09:09;3.73;;;1.37;;
20739;SDS011;10530;49.968;19.844;2023-08-07T20:14:12;4.00;;;1.48;;
20739;SDS011;10530;49.968;19.844;2023-08-07T20:19:15;3.50;;;1.30;;
20739;SDS011;10530;49.968;19.844;2023-08-07T20:24:18;3.60;;;1.20;;
20739;SDS011;10530;49.968;19.844;2023-08-07T20:29:21;5.25;;;1.20;;
20739;SDS011;10530;49.968;19.844;2023-08-07T20:34:24;3.50;;;1.20;;
20739;SDS011;10530;49.968;19.844;2023-08-07T20:39:26;3.10;;;0.90;;
20739;SDS011;10530;49.968;19.844;2023-08-07T20:44:30;2.78;;;0.90;;
20739;SDS011;10530;49.968;19.844;2023-08-07T20:49:32;3.73;;;0.90;;
20739;SDS011;10530;49.968;19.844;2023-08-07T20:54:35;3.08;;;1.00;;
20739;SDS011;10530;49.968;19.844;2023-08-07T20:59:38;2.90;;;1.00;;
20739;SDS011;10530;49.968;19.844;2023-08-07T21:04:41;2.85;;;1.00;;
20739;SDS011;10530;49.968;19.844;2023-08-07T21:09:43;2.97;;;1.00;;
20739;SDS011;10530;49.968;19.844;2023-08-07T21:14:46;2.80;;;0.80;;
20739;SDS011;10530;49.968;19.844;2023-08-07T21:19:49;3.72;;;1.20;;
20739;SDS011;10530;49.968;19.844;2023-08-07T21:24:52;3.17;;;1.00;;
20739;SDS011;10530;49.968;19.844;2023-08-07T21:29:55;3.20;;;0.90;;
20739;SDS011;10530;49.968;19.844;2023-08-07T21:34:57;2.92;;;0.90;;
20739;SDS011;10530;49.968;19.844;2023-08-07T21:40:00;3.23;;;0.90;;
20739;SDS011;10530;49.968;19.844;2023-08-07T21:45:03;2.67;;;0.98;;
20739;SDS011;10530;49.968;19.844;2023-08-07T21:50:07;2.93;;;0.97;;
20739;SDS011;10530;49.968;19.844;2023-08-07T21:55:12;2.78;;;0.90;;
20739;SDS011;10530;49.968;19.844;2023-08-07T22:00:15;3.25;;;0.90;;
20739;SDS011;10530;49.968;19.844;2023-08-07T22:05:18;3.00;;;0.80;;
20739;SDS011;10530;49.968;19.844;2023-08-07T22:10:22;2.95;;;1.10;;
20739;SDS011;10530;49.968;19.844;2023-08-07T22:15:25;2.53;;;0.80;;
20739;SDS011;10530;49.968;19.844;2023-08-07T22:20:29;3.92;;;1.05;;
20739;SDS011;10530;49.968;19.844;2023-08-07T22:25:31;2.75;;;0.98;;
20739;SDS011;10530;49.968;19.844;2023-08-07T22:30:34;3.00;;;0.90;;
20739;SDS011;10530;49.968;19.844;2023-08-07T22:35:37;3.28;;;0.90;;
20739;SDS011;10530;49.968;19.844;2023-08-07T22:40:39;4.50;;;0.90;;
20739;SDS011;10530;49.968;19.844;2023-08-07T22:45:42;3.00;;;1.10;;
20739;SDS011;10530;49.968;19.844;2023-08-07T22:50:45;3.55;;;0.90;;
20739;SDS011;10530;49.968;19.844;2023-08-07T22:55:48;5.00;;;0.90;;
20739;SDS011;10530;49.968;19.844;2023-08-07T23:00:51;2.80;;;0.90;;
20739;SDS011;10530;49.968;19.844;2023-08-07T23:05:53;2.63;;;0.90;;
20739;SDS011;10530;49.968;19.844;2023-08-07T23:10:56;2.50;;;0.80;;
20739;SDS011;10530;49.968;19.844;2023-08-07T23:15:59;2.67;;;0.77;;
20739;SDS011;10530;49.968;19.844;2023-08-07T23:21:02;2.93;;;1.00;;
20739;SDS011;10530;49.968;19.844;2023-08-07T23:26:05;3.45;;;1.00;;
20739;SDS011;10530;49.968;19.844;2023-08-07T23:31:07;2.50;;;0.80;;
20739;SDS011;10530;49.968;19.844;2023-08-07T23:36:10;2.55;;;0.73;;
20739;SDS011;10530;49.968;19.844;2023-08-07T23:41:13;2.95;;;0.80;;
20739;SDS011;10530;49.968;19.844;2023-08-07T23:46:15;3.60;;;0.90;;
20739;SDS011;10530;49.968;19.844;2023-08-07T23:51:18;3.88;;;0.80;;
20739;SDS011;10530;49.968;19.844;2023-08-07T23:56:21;3.00;;;0.90;;
